Saga Beija-flor — VRVN8 — position and weather

sailwx.info

Track history (hours):
 
Tides and Currents Weather Stations Pressure Air Temp Water Temp Dewpoint Dewpoint Depression Visibility Wind Speed Wind Dir Waves Ship Positions

Saga Beija-flor

Last reported at 2018-Apr-24 04:00 UTC. Time now 2018-Apr-24 12:36 UTC.
Position N 15°00' W 098°00'.

Length 200 m; draft 11.2 m.

Type: Cargo ship. MMSI: 477554000.

Wind from 060 at 12 knots

Barometer 1010.0 mb
Air temperature 28.0 ° C
Visibility: greater than 10.8 NM
Dewpoint 23.7 ° C
Water temperature 25.0 ° C

Date/timePositionNaut miles runAvg speedWind from/ knotsBaromVisibWave heightAir tempDewpointWater temp
2018-Apr-24 04:00N 15°00' W 098°00'29112.1 060 / 121010.010.8 28.023.725.0
2018-Apr-23 04:00N 17°12' W 102°30'29212.2 270 / 151010.010.8 25.022.023.0
2018-Apr-22 04:00N 20°00' W 106°42'59212.3 320 / 111011.010.8 23.019.921.0
2018-Apr-20 04:00N 26°00' W 115°12'28312.3 190 / 211015.0 16.010.413.0
2018-Apr-19 05:00N 28°54' W 119°24'27811.6 190 / 211019.010.8 14.0 8.011.0
2018-Apr-18 05:00N 32°42' W 122°30'26311.9 190 / 221021.0 5.4 12.0 7.910.0
2018-Apr-17 07:00N 36°54' W 124°00'2412.2 340 / 121022.0 5.4 10.0 5.7 5.0
2018-Apr-17 05:00N 37°18' W 124°06'25211.5 170 / 151020.0 5.4 10.0 5.7 7.0
2018-Apr-16 07:00N 41°24' W 125°18'25911.8 200 / 251009.0 5.4 7.0 4.7 5.0
2018-Apr-15 09:08N 45°43' W 125°17'111.4
2018-Apr-15 09:00N 45°44' W 125°17'611.4
2018-Apr-15 08:30N 45°50' W 125°16'611.4
2018-Apr-15 07:59N 45°56' W 125°15'611.2
2018-Apr-15 07:29N 46°01' W 125°15'511.0
2018-Apr-15 07:00N 46°07' W 125°14'11070.9
2018-Apr-15 07:00N 46°06' W 125°12'612.7 220 / 151014.0 5.4 8.0 5.8 5.0
2018-Apr-15 06:30N 46°12' W 125°13'510.9
2018-Apr-15 06:00N 46°17' W 125°15'510.9
2018-Apr-15 05:30N 46°23' W 125°15'611.2
2018-Apr-15 05:00N 46°28' W 125°14'611.3
2018-Apr-15 04:30N 46°34' W 125°13'611.1
2018-Apr-15 04:00N 46°40' W 125°12'611.1
2018-Apr-15 03:30N 46°45' W 125°11'611.2
2018-Apr-15 03:00N 46°51' W 125°10'611.2
2018-Apr-15 02:30N 46°56' W 125°10'611.2
2018-Apr-15 01:58N 47°02' W 125°09'7210.5
2018-Apr-14 19:05N 48°14' W 125°17'2 9.5
2018-Apr-14 18:55N 48°16' W 125°17'9 9.3
2018-Apr-14 17:57N 48°23' W 125°09'5 9.6
2018-Apr-14 17:28N 48°27' W 125°05'4 9.3
2018-Apr-14 17:00N 48°31' W 125°01'5 9.3
2018-Apr-14 16:30N 48°31' W 124°54'5 9.0
2018-Apr-14 16:00N 48°31' W 124°47'4 8.7
2018-Apr-14 15:30N 48°30' W 124°41'5 9.3
2018-Apr-14 15:00N 48°28' W 124°34'510.5
2018-Apr-14 14:30N 48°26' W 124°27'510.6
2018-Apr-14 14:00N 48°24' W 124°20'611.0
2018-Apr-14 13:30N 48°22' W 124°12'611.2
2018-Apr-14 13:00N 48°20' W 124°04'611.7
2018-Apr-14 12:30N 48°17' W 123°56'611.6
2018-Apr-14 12:00N 48°17' W 123°47'510.0
2018-Apr-14 11:28N 48°16' W 123°39'5 9.0
2018-Apr-14 10:55N 48°16' W 123°32'4 9.2
2018-Apr-14 10:30N 48°18' W 123°28'510.6
2018-Apr-14 10:00N 48°23' W 123°24'5 9.6
2018-Apr-14 09:30N 48°23' W 123°16'510.2
2018-Apr-14 09:00N 48°28' W 123°12'613.0
2018-Apr-14 08:30N 48°34' W 123°14'612.5
2018-Apr-14 08:00N 48°40' W 123°15'611.4
2018-Apr-14 07:30N 48°44' W 123°08'612.4
2018-Apr-14 07:00N 48°47' W 123°01'712.7
2018-Apr-14 06:29N 48°53' W 123°06'713.6
2018-Apr-14 05:59N 48°57' W 123°14'613.1
2018-Apr-14 05:30N 49°02' W 123°21'611.5
2018-Apr-14 05:00N 49°08' W 123°23'611.8
2018-Apr-14 04:30N 49°13' W 123°21'510.5
2018-Apr-14 04:00N 49°18' W 123°18'  
Track history (hours):
 
Tides and Currents Weather Stations Pressure Air Temp Water Temp Dewpoint Dewpoint Depression Visibility Wind Speed Wind Dir Waves Ship Positions

Saga Beija-flor

Last reported at 2018-Apr-24 04:00 UTC. Time now 2018-Apr-24 12:36 UTC.
Position N 15°00' W 098°00'.

Length 200 m; draft 11.2 m.

Type: Cargo ship. MMSI: 477554000.

Wind from 060 at 12 knots

Barometer 1010.0 mb
Air temperature 28.0 ° C
Visibility: greater than 10.8 NM
Dewpoint 23.7 ° C
Water temperature 25.0 ° C

Date/timePositionNaut miles runAvg speedWind from/ knotsBaromVisibWave heightAir tempDewpointWater temp
2018-Apr-24 04:00N 15°00' W 098°00'29112.1 060 / 121010.010.8 28.023.725.0
2018-Apr-23 04:00N 17°12' W 102°30'29212.2 270 / 151010.010.8 25.022.023.0
2018-Apr-22 04:00N 20°00' W 106°42'59212.3 320 / 111011.010.8 23.019.921.0
2018-Apr-20 04:00N 26°00' W 115°12'28312.3 190 / 211015.0 16.010.413.0
2018-Apr-19 05:00N 28°54' W 119°24'27811.6 190 / 211019.010.8 14.0 8.011.0
2018-Apr-18 05:00N 32°42' W 122°30'26311.9 190 / 221021.0 5.4 12.0 7.910.0
2018-Apr-17 07:00N 36°54' W 124°00'2412.2 340 / 121022.0 5.4 10.0 5.7 5.0
2018-Apr-17 05:00N 37°18' W 124°06'25211.5 170 / 151020.0 5.4 10.0 5.7 7.0
2018-Apr-16 07:00N 41°24' W 125°18'25911.8 200 / 251009.0 5.4 7.0 4.7 5.0
2018-Apr-15 09:08N 45°43' W 125°17'111.4
2018-Apr-15 09:00N 45°44' W 125°17'611.4
2018-Apr-15 08:30N 45°50' W 125°16'611.4
2018-Apr-15 07:59N 45°56' W 125°15'611.2
2018-Apr-15 07:29N 46°01' W 125°15'511.0
2018-Apr-15 07:00N 46°07' W 125°14'11070.9
2018-Apr-15 07:00N 46°06' W 125°12'612.7 220 / 151014.0 5.4 8.0 5.8 5.0
2018-Apr-15 06:30N 46°12' W 125°13'510.9
2018-Apr-15 06:00N 46°17' W 125°15'510.9
2018-Apr-15 05:30N 46°23' W 125°15'611.2
2018-Apr-15 05:00N 46°28' W 125°14'611.3
2018-Apr-15 04:30N 46°34' W 125°13'611.1
2018-Apr-15 04:00N 46°40' W 125°12'611.1
2018-Apr-15 03:30N 46°45' W 125°11'611.2
2018-Apr-15 03:00N 46°51' W 125°10'611.2
2018-Apr-15 02:30N 46°56' W 125°10'611.2
2018-Apr-15 01:58N 47°02' W 125°09'7210.5
2018-Apr-14 19:05N 48°14' W 125°17'2 9.5
2018-Apr-14 18:55N 48°16' W 125°17'9 9.3
2018-Apr-14 17:57N 48°23' W 125°09'5 9.6
2018-Apr-14 17:28N 48°27' W 125°05'4 9.3
2018-Apr-14 17:00N 48°31' W 125°01'5 9.3
2018-Apr-14 16:30N 48°31' W 124°54'5 9.0
2018-Apr-14 16:00N 48°31' W 124°47'4 8.7
2018-Apr-14 15:30N 48°30' W 124°41'5 9.3
2018-Apr-14 15:00N 48°28' W 124°34'510.5
2018-Apr-14 14:30N 48°26' W 124°27'510.6
2018-Apr-14 14:00N 48°24' W 124°20'611.0
2018-Apr-14 13:30N 48°22' W 124°12'611.2
2018-Apr-14 13:00N 48°20' W 124°04'611.7
2018-Apr-14 12:30N 48°17' W 123°56'611.6
2018-Apr-14 12:00N 48°17' W 123°47'510.0
2018-Apr-14 11:28N 48°16' W 123°39'5 9.0
2018-Apr-14 10:55N 48°16' W 123°32'4 9.2
2018-Apr-14 10:30N 48°18' W 123°28'510.6
2018-Apr-14 10:00N 48°23' W 123°24'5 9.6
2018-Apr-14 09:30N 48°23' W 123°16'510.2
2018-Apr-14 09:00N 48°28' W 123°12'613.0
2018-Apr-14 08:30N 48°34' W 123°14'612.5
2018-Apr-14 08:00N 48°40' W 123°15'611.4
2018-Apr-14 07:30N 48°44' W 123°08'612.4
2018-Apr-14 07:00N 48°47' W 123°01'712.7
2018-Apr-14 06:29N 48°53' W 123°06'713.6
2018-Apr-14 05:59N 48°57' W 123°14'613.1
2018-Apr-14 05:30N 49°02' W 123°21'611.5
2018-Apr-14 05:00N 49°08' W 123°23'611.8
2018-Apr-14 04:30N 49°13' W 123°21'510.5
2018-Apr-14 04:00N 49°18' W 123°18'  

Dump ship's entire track history